createdAt,value
2023-05-15T00:00:10.568Z,12.39
2023-05-15T00:02:38.859Z,12.33
2023-05-15T00:05:08.690Z,12.32
2023-05-15T00:07:39.115Z,12.33
2023-05-15T00:10:07.852Z,12.27
2023-05-15T00:12:36.729Z,12.18
2023-05-15T00:15:04.747Z,12.13
2023-05-15T00:17:32.783Z,11.97
2023-05-15T00:20:00.738Z,12.00
2023-05-15T00:22:28.847Z,11.93
2023-05-15T00:24:59.517Z,12.00
2023-05-15T00:27:28.282Z,11.93
2023-05-15T00:29:55.996Z,11.89
2023-05-15T00:32:23.770Z,11.88
2023-05-15T00:34:51.552Z,11.82
2023-05-15T00:37:19.508Z,11.79
2023-05-15T00:39:47.390Z,11.74
2023-05-15T00:42:17.289Z,11.70
2023-05-15T00:44:45.772Z,11.68
2023-05-15T00:47:15.796Z,11.62
2023-05-15T00:49:44.564Z,11.63
2023-05-15T00:52:13.040Z,11.60
2023-05-15T00:54:40.983Z,11.61
2023-05-15T00:57:09.826Z,11.71
2023-05-15T00:59:40.434Z,11.78
2023-05-15T01:02:08.418Z,11.85
2023-05-15T01:04:36.247Z,11.79
2023-05-15T01:07:04.310Z,11.83
2023-05-15T01:09:32.943Z,11.92
2023-05-15T01:12:02.053Z,11.96
2023-05-15T01:14:29.811Z,11.98
2023-05-15T01:16:59.855Z,11.96
2023-05-15T01:19:27.868Z,12.00
2023-05-15T01:22:26.329Z,11.98
2023-05-15T01:25:14.515Z,12.01
2023-05-15T01:27:46.460Z,12.00
2023-05-15T01:30:23.332Z,11.95
2023-05-15T01:32:58.161Z,11.94
2023-05-15T01:35:32.695Z,11.83
2023-05-15T01:38:14.049Z,11.76
2023-05-15T01:40:43.246Z,11.81
2023-05-15T01:43:16.743Z,11.75
2023-05-15T01:45:44.632Z,11.63
2023-05-15T01:48:14.835Z,11.69
2023-05-15T01:50:45.540Z,11.66
2023-05-15T01:53:13.756Z,11.63
2023-05-15T01:55:42.585Z,11.62
2023-05-15T01:58:12.229Z,11.57
2023-05-15T02:00:41.088Z,11.42
2023-05-15T02:03:09.507Z,11.42
2023-05-15T02:05:37.744Z,11.42
2023-05-15T02:08:06.356Z,11.44
2023-05-15T02:10:34.722Z,11.37
2023-05-15T02:13:03.016Z,11.35
2023-05-15T02:15:32.247Z,11.34
2023-05-15T02:18:00.437Z,11.33
2023-05-15T02:20:28.179Z,11.33
2023-05-15T02:22:56.066Z,11.31
2023-05-15T02:25:35.830Z,11.28
2023-05-15T02:28:08.815Z,11.22
2023-05-15T02:30:44.092Z,11.15
2023-05-15T02:33:19.364Z,11.16
2023-05-15T02:35:52.396Z,11.10
2023-05-15T02:38:27.555Z,11.00
2023-05-15T02:40:57.959Z,10.93
2023-05-15T02:43:27.424Z,10.85
2023-05-15T02:45:58.057Z,10.82
2023-05-15T02:48:27.206Z,10.82
2023-05-15T02:50:55.322Z,10.74
2023-05-15T02:53:23.207Z,10.67
2023-05-15T02:55:50.943Z,10.65
2023-05-15T02:58:18.955Z,10.62
2023-05-15T03:00:46.744Z,10.59
2023-05-15T03:03:15.797Z,10.53
2023-05-15T03:05:43.577Z,10.59
2023-05-15T03:08:11.306Z,10.59
2023-05-15T03:10:39.125Z,10.57
2023-05-15T03:13:06.865Z,10.48
2023-05-15T03:15:34.643Z,10.43
2023-05-15T03:18:02.670Z,10.43
2023-05-15T03:20:31.930Z,10.44
2023-05-15T03:22:59.687Z,10.41
2023-05-15T03:25:27.571Z,10.37
2023-05-15T03:27:55.652Z,10.37
2023-05-15T03:30:23.567Z,10.31
2023-05-15T03:32:51.451Z,10.27
2023-05-15T03:35:19.636Z,10.25
2023-05-15T03:37:49.005Z,10.24
2023-05-15T03:40:16.681Z,10.29
2023-05-15T03:42:56.756Z,10.33
2023-05-15T03:45:24.802Z,10.34
2023-05-15T03:47:52.898Z,10.32
2023-05-15T03:50:20.970Z,10.27
2023-05-15T03:52:50.169Z,10.23
2023-05-15T03:55:18.015Z,10.24
2023-05-15T03:57:45.746Z,10.23
2023-05-15T04:00:14.887Z,10.27
2023-05-15T04:02:43.455Z,10.29
2023-05-15T04:05:11.613Z,10.31
2023-05-15T04:07:39.842Z,10.28
2023-05-15T04:10:09.743Z,10.20
2023-05-15T04:12:40.307Z,10.17
2023-05-15T04:15:18.372Z,10.21
2023-05-15T04:17:47.185Z,10.19
2023-05-15T04:20:16.669Z,10.21
2023-05-15T04:22:45.120Z,10.26
2023-05-15T04:25:16.154Z,10.31
2023-05-15T04:27:44.589Z,10.37
2023-05-15T04:30:14.677Z,10.43
2023-05-15T04:32:42.922Z,10.46
2023-05-15T04:35:15.459Z,10.48
2023-05-15T04:37:45.618Z,10.48
2023-05-15T04:40:16.687Z,10.56
2023-05-15T04:42:45.012Z,10.67
2023-05-15T04:45:13.319Z,10.64
2023-05-15T04:47:41.117Z,10.64
2023-05-15T04:50:10.209Z,10.62
2023-05-15T04:52:37.945Z,10.64
2023-05-15T04:55:06.790Z,10.61
2023-05-15T04:57:36.840Z,10.58
2023-05-15T05:00:13.716Z,10.62
2023-05-15T05:02:44.329Z,10.68
2023-05-15T05:05:14.737Z,10.74
2023-05-15T05:07:45.901Z,10.80
2023-05-15T05:10:17.395Z,10.89
2023-05-15T05:12:47.967Z,10.95
2023-05-15T05:15:16.220Z,10.99
2023-05-15T05:17:47.851Z,10.97
2023-05-15T05:20:19.002Z,11.00
2023-05-15T05:22:47.621Z,11.15
2023-05-15T05:25:15.675Z,11.32
2023-05-15T05:27:45.094Z,11.43
2023-05-15T05:30:15.321Z,11.71
2023-05-15T05:32:46.364Z,11.79
2023-05-15T05:35:15.665Z,11.91
2023-05-15T05:37:45.512Z,11.99
2023-05-15T05:40:14.091Z,12.11
2023-05-15T05:42:42.411Z,12.10
2023-05-15T05:45:12.032Z,12.11
2023-05-15T05:47:41.137Z,12.05
2023-05-15T05:50:10.804Z,12.00
2023-05-15T05:52:38.698Z,12.21
2023-05-15T05:55:07.258Z,12.38
2023-05-15T05:57:35.295Z,12.35
2023-05-15T06:00:04.131Z,12.57
2023-05-15T06:02:31.942Z,12.49
2023-05-15T06:05:01.224Z,12.55
2023-05-15T06:07:28.926Z,12.59
2023-05-15T06:09:56.626Z,12.71
2023-05-15T06:12:24.848Z,12.90
2023-05-15T06:14:52.608Z,12.97
2023-05-15T06:17:21.156Z,13.07
2023-05-15T06:19:48.860Z,13.26
2023-05-15T06:22:19.282Z,13.31
2023-05-15T06:24:47.260Z,13.45
2023-05-15T06:27:15.100Z,13.47
2023-05-15T06:29:43.285Z,13.64
2023-05-15T06:32:11.421Z,13.74
2023-05-15T06:34:39.102Z,13.88
2023-05-15T06:37:07.901Z,14.00
2023-05-15T06:39:37.396Z,14.07
2023-05-15T06:42:05.670Z,14.15
2023-05-15T06:44:33.687Z,14.49
2023-05-15T06:47:01.932Z,14.49
2023-05-15T06:49:29.778Z,14.53
2023-05-15T06:51:57.504Z,14.61
2023-05-15T06:54:25.305Z,14.72
2023-05-15T06:56:54.500Z,14.95
2023-05-15T06:59:22.218Z,15.39
2023-05-15T07:01:49.920Z,15.48
2023-05-15T07:04:17.682Z,15.85
2023-05-15T07:06:45.456Z,16.40
2023-05-15T07:09:14.522Z,16.88
2023-05-15T07:11:42.293Z,18.51
2023-05-15T07:14:12.328Z,20.26
2023-05-15T07:16:39.995Z,22.12
2023-05-15T07:19:09.886Z,23.69
2023-05-15T07:21:38.135Z,25.04
2023-05-15T07:24:06.493Z,25.70
2023-05-15T07:26:43.460Z,27.92
2023-05-15T07:29:19.791Z,26.91
2023-05-15T07:31:47.558Z,29.38
2023-05-15T07:34:16.375Z,28.96
2023-05-15T07:36:44.079Z,27.86
2023-05-15T07:39:11.870Z,25.60
2023-05-15T07:41:39.622Z,22.82
2023-05-15T07:44:07.393Z,22.27
2023-05-15T07:46:36.450Z,20.92
2023-05-15T07:49:04.264Z,22.12
2023-05-15T07:51:32.118Z,23.97
2023-05-15T07:53:59.970Z,24.92
2023-05-15T07:56:28.223Z,24.96
2023-05-15T07:58:56.066Z,23.12
2023-05-15T08:01:23.921Z,22.23
2023-05-15T08:03:54.316Z,21.40
2023-05-15T08:06:22.072Z,20.40
2023-05-15T08:08:51.612Z,19.38
2023-05-15T08:11:19.651Z,18.96
2023-05-15T08:13:47.322Z,20.49
2023-05-15T08:16:15.075Z,22.05
2023-05-15T08:18:42.849Z,24.90
2023-05-15T08:21:12.565Z,26.67
2023-05-15T08:23:40.322Z,28.11
2023-05-15T08:26:08.438Z,27.78
2023-05-15T08:28:36.444Z,28.30
2023-05-15T08:31:04.410Z,26.42
2023-05-15T08:33:32.188Z,28.66
2023-05-15T08:35:59.855Z,26.14
2023-05-15T08:38:28.882Z,26.50
2023-05-15T08:41:00.609Z,26.94
2023-05-15T08:43:32.967Z,25.73
2023-05-15T08:46:01.415Z,27.83
2023-05-15T08:48:31.438Z,25.74
2023-05-15T08:51:01.559Z,25.64
2023-05-15T08:53:32.861Z,27.11
2023-05-15T08:56:01.163Z,26.63
2023-05-15T08:58:29.335Z,28.94
2023-05-15T09:00:58.603Z,30.14
2023-05-15T09:03:26.421Z,28.16
2023-05-15T09:05:55.700Z,26.19
2023-05-15T09:08:23.991Z,25.61
2023-05-15T09:10:55.464Z,25.79
2023-05-15T09:13:23.766Z,27.56
2023-05-15T09:15:52.293Z,28.82
2023-05-15T09:18:21.201Z,28.59
2023-05-15T09:20:49.321Z,28.56
2023-05-15T09:23:25.928Z,28.02
2023-05-15T09:25:56.895Z,29.78
2023-05-15T09:28:30.312Z,28.79
2023-05-15T09:31:01.027Z,27.09
2023-05-15T09:33:29.732Z,26.90
2023-05-15T09:35:57.518Z,27.55
2023-05-15T09:38:27.156Z,29.31
2023-05-15T09:41:04.569Z,28.54
2023-05-15T09:43:36.382Z,26.41
2023-05-15T09:46:04.469Z,24.82
2023-05-15T09:48:33.490Z,23.46
2023-05-15T09:51:02.377Z,21.99
2023-05-15T09:53:31.861Z,21.08
2023-05-15T09:55:59.810Z,20.51
2023-05-15T09:58:28.923Z,21.07
2023-05-15T10:01:00.884Z,21.89
2023-05-15T10:03:36.436Z,21.85
2023-05-15T10:06:04.694Z,20.92
2023-05-15T10:08:35.413Z,20.23
2023-05-15T10:11:03.273Z,19.59
2023-05-15T10:13:35.311Z,18.98
2023-05-15T10:16:04.112Z,18.19
2023-05-15T10:18:35.014Z,17.62
2023-05-15T10:21:04.692Z,17.12
2023-05-15T10:23:37.786Z,16.78
2023-05-15T10:26:12.426Z,16.93
2023-05-15T10:28:44.787Z,17.11
2023-05-15T10:31:14.137Z,17.31
2023-05-15T10:33:45.134Z,17.44
2023-05-15T10:36:19.343Z,17.57
2023-05-15T10:38:47.726Z,17.59
2023-05-15T10:41:18.549Z,17.58
2023-05-15T10:43:48.453Z,17.19
2023-05-15T10:46:17.278Z,16.59
2023-05-15T10:48:45.154Z,16.08
2023-05-15T10:51:19.868Z,15.73
2023-05-15T10:53:47.738Z,15.74
2023-05-15T10:56:17.150Z,15.69
2023-05-15T10:58:50.966Z,15.84
2023-05-15T11:01:33.086Z,15.85
2023-05-15T11:04:08.733Z,16.36
2023-05-15T11:06:37.548Z,16.82
2023-05-15T11:09:39.463Z,17.50
2023-05-15T11:12:09.226Z,18.03
2023-05-15T11:14:40.842Z,18.25
2023-05-15T11:17:10.320Z,18.35
2023-05-15T11:19:54.310Z,18.84
2023-05-15T11:22:23.883Z,19.15
2023-05-15T11:24:54.012Z,19.46
2023-05-15T11:27:23.781Z,19.46
2023-05-15T11:30:14.700Z,19.95
2023-05-15T11:32:44.655Z,20.97
2023-05-15T11:35:13.022Z,21.68
2023-05-15T11:37:43.906Z,22.72
2023-05-15T11:40:15.280Z,22.95
2023-05-15T11:42:43.251Z,23.24
2023-05-15T11:45:12.658Z,22.09
2023-05-15T11:47:45.410Z,23.28
2023-05-15T11:50:13.748Z,23.13
2023-05-15T11:52:41.676Z,23.30
2023-05-15T11:55:10.321Z,23.12
2023-05-15T11:57:40.175Z,23.31
2023-05-15T12:00:10.190Z,23.11
2023-05-15T12:02:39.360Z,23.35
2023-05-15T12:05:08.471Z,23.34
2023-05-15T12:07:38.778Z,23.22
2023-05-15T12:10:07.800Z,23.11
2023-05-15T12:12:37.637Z,23.42
2023-05-15T12:15:06.485Z,23.29
2023-05-15T12:17:35.934Z,23.25
2023-05-15T12:20:06.930Z,22.73
2023-05-15T12:22:38.178Z,22.94
2023-05-15T12:25:07.801Z,22.58
2023-05-15T12:27:36.358Z,22.34
2023-05-15T12:30:05.524Z,22.60
2023-05-15T12:32:37.110Z,21.91
2023-05-15T12:35:07.204Z,20.94
2023-05-15T12:37:37.441Z,20.26
2023-05-15T12:40:10.426Z,19.31
2023-05-15T12:42:42.935Z,18.04
2023-05-15T12:45:15.608Z,17.23
2023-05-15T12:47:44.325Z,16.92
2023-05-15T12:50:17.975Z,16.80
2023-05-15T12:52:52.045Z,16.91
2023-05-15T12:55:23.949Z,17.01
2023-05-15T12:57:52.271Z,17.18
2023-05-15T13:00:22.656Z,17.35
2023-05-15T13:02:51.561Z,17.60
2023-05-15T13:05:20.979Z,17.76
2023-05-15T13:07:49.058Z,17.97
2023-05-15T13:10:17.796Z,17.97
2023-05-15T13:12:50.207Z,18.69
2023-05-15T13:15:26.880Z,19.04
2023-05-15T13:17:57.580Z,19.18
2023-05-15T13:20:27.543Z,18.87
2023-05-15T13:22:55.963Z,18.77
2023-05-15T13:25:23.828Z,19.43
2023-05-15T13:27:52.668Z,19.17
2023-05-15T13:30:20.734Z,19.89
2023-05-15T13:32:49.354Z,19.92
2023-05-15T13:35:17.534Z,19.95
2023-05-15T13:37:47.689Z,19.68
2023-05-15T13:40:15.609Z,19.59
2023-05-15T13:42:44.683Z,19.59
2023-05-15T13:45:13.641Z,19.58
2023-05-15T13:47:41.848Z,19.44
2023-05-15T13:50:11.969Z,19.67
2023-05-15T13:52:40.449Z,19.57
2023-05-15T13:55:10.798Z,19.11
2023-05-15T13:57:39.105Z,19.58
2023-05-15T14:00:09.276Z,19.91
2023-05-15T14:02:37.062Z,19.81
2023-05-15T14:05:05.681Z,19.63
2023-05-15T14:07:33.342Z,20.05
2023-05-15T14:10:01.176Z,20.04
2023-05-15T14:12:30.300Z,20.13
2023-05-15T14:14:58.428Z,20.10
2023-05-15T14:17:27.824Z,20.12
2023-05-15T14:19:55.608Z,20.10
2023-05-15T14:22:25.102Z,20.09
2023-05-15T14:24:53.355Z,20.25
2023-05-15T14:27:21.434Z,20.13
2023-05-15T14:29:51.354Z,20.02
2023-05-15T14:32:19.168Z,19.95
2023-05-15T14:34:47.324Z,19.82
2023-05-15T14:37:15.106Z,19.78
2023-05-15T14:39:42.852Z,19.88
2023-05-15T14:42:10.784Z,19.59
2023-05-15T14:44:38.469Z,19.32
2023-05-15T14:47:09.037Z,19.28
2023-05-15T14:49:37.037Z,19.18
2023-05-15T14:52:07.951Z,19.19
2023-05-15T14:54:36.430Z,19.26
2023-05-15T14:57:04.858Z,19.23
2023-05-15T14:59:32.717Z,19.28
2023-05-15T15:02:00.746Z,19.58
2023-05-15T15:04:34.393Z,19.82
2023-05-15T15:07:04.798Z,20.01
2023-05-15T15:09:32.638Z,20.00
2023-05-15T15:12:00.579Z,19.83
2023-05-15T15:14:28.552Z,19.59
2023-05-15T15:16:56.520Z,19.28
2023-05-15T15:19:24.496Z,19.20
2023-05-15T15:21:54.310Z,19.21
2023-05-15T15:24:22.179Z,19.17
2023-05-15T15:26:49.978Z,19.08
2023-05-15T15:29:17.689Z,19.17
2023-05-15T15:31:45.614Z,19.24
2023-05-15T15:34:13.375Z,19.24
2023-05-15T15:36:41.641Z,19.34
2023-05-15T15:39:12.476Z,19.39
2023-05-15T15:41:40.723Z,19.45
2023-05-15T15:44:08.428Z,19.51
2023-05-15T15:46:36.589Z,19.62
2023-05-15T15:49:08.578Z,19.51
2023-05-15T15:51:38.898Z,19.66
2023-05-15T15:54:07.363Z,19.68
2023-05-15T15:56:36.730Z,19.53
2023-05-15T15:59:07.309Z,19.46
2023-05-15T16:01:35.169Z,19.51
2023-05-15T16:04:03.029Z,19.46
2023-05-15T16:06:30.906Z,19.21
2023-05-15T16:08:59.813Z,19.13
2023-05-15T16:11:29.591Z,19.01
2023-05-15T16:13:58.845Z,19.09
2023-05-15T16:16:26.848Z,18.92
2023-05-15T16:18:54.765Z,18.92
2023-05-15T16:21:23.825Z,18.96
2023-05-15T16:23:53.810Z,18.93
2023-05-15T16:26:23.694Z,18.92
2023-05-15T16:28:53.109Z,18.87
2023-05-15T16:31:24.744Z,18.81
2023-05-15T16:33:53.231Z,18.85
2023-05-15T16:36:21.197Z,18.72
2023-05-15T16:38:49.014Z,18.78
2023-05-15T16:41:16.943Z,18.73
2023-05-15T16:43:52.943Z,18.72
2023-05-15T16:46:23.665Z,18.66
2023-05-15T16:48:51.479Z,18.51
2023-05-15T16:51:21.536Z,18.43
2023-05-15T16:53:49.373Z,18.27
2023-05-15T16:56:17.261Z,18.23
2023-05-15T16:58:47.726Z,18.18
2023-05-15T17:01:15.723Z,18.14
2023-05-15T17:03:45.194Z,18.12
2023-05-15T17:06:13.390Z,18.12
2023-05-15T17:08:42.949Z,18.14
2023-05-15T17:11:13.399Z,18.21
2023-05-15T17:13:42.731Z,18.29
2023-05-15T17:16:10.832Z,18.21
2023-05-15T17:18:39.869Z,18.27
2023-05-15T17:21:09.671Z,18.33
2023-05-15T17:23:37.644Z,18.29
2023-05-15T17:26:05.986Z,18.15
2023-05-15T17:28:36.230Z,18.07
2023-05-15T17:31:10.809Z,17.80
2023-05-15T17:33:39.872Z,17.63
2023-05-15T17:36:10.118Z,17.28
2023-05-15T17:38:37.910Z,16.98
2023-05-15T17:41:07.231Z,16.84
2023-05-15T17:43:36.612Z,16.62
2023-05-15T17:46:05.739Z,16.50
2023-05-15T17:48:34.472Z,16.35
2023-05-15T17:51:03.343Z,16.30
2023-05-15T17:53:32.560Z,16.16
2023-05-15T17:56:01.116Z,16.08
2023-05-15T17:58:30.166Z,16.00
2023-05-15T18:00:57.926Z,15.89
2023-05-15T18:03:25.821Z,15.83
2023-05-15T18:05:56.053Z,15.80
2023-05-15T18:08:23.963Z,15.78
2023-05-15T18:10:54.069Z,15.72
2023-05-15T18:13:22.193Z,15.66
2023-05-15T18:15:50.108Z,15.57
2023-05-15T18:18:17.853Z,15.60
2023-05-15T18:20:45.881Z,15.60
2023-05-15T18:23:14.054Z,15.52
2023-05-15T18:25:43.283Z,15.54
2023-05-15T18:28:12.531Z,15.55
2023-05-15T18:30:41.673Z,15.44
2023-05-15T18:33:10.171Z,15.31
2023-05-15T18:35:38.403Z,15.29
2023-05-15T18:38:07.144Z,15.21
2023-05-15T18:40:35.993Z,15.24
2023-05-15T18:43:04.125Z,15.25
2023-05-15T18:45:33.358Z,15.16
2023-05-15T18:48:01.286Z,15.23
2023-05-15T18:50:29.092Z,15.20
2023-05-15T18:52:56.965Z,15.12
2023-05-15T18:55:27.744Z,15.13
2023-05-15T18:57:55.882Z,15.14
2023-05-15T19:00:37.176Z,15.28
2023-05-15T19:03:09.632Z,15.36
2023-05-15T19:05:37.680Z,15.25
2023-05-15T19:08:05.639Z,15.29
2023-05-15T19:10:33.421Z,15.26
2023-05-15T19:13:01.404Z,15.01
2023-05-15T19:15:29.158Z,14.93
2023-05-15T19:17:57.080Z,14.89
2023-05-15T19:20:26.593Z,14.91
2023-05-15T19:22:54.542Z,14.78
2023-05-15T19:25:22.605Z,14.79
2023-05-15T19:27:50.360Z,14.74
2023-05-15T19:30:18.618Z,14.80
2023-05-15T19:32:46.848Z,14.87
2023-05-15T19:35:14.626Z,14.92
2023-05-15T19:37:43.827Z,14.83
2023-05-15T19:40:14.994Z,14.84
2023-05-15T19:42:42.717Z,14.88
2023-05-15T19:45:11.250Z,14.85
2023-05-15T19:47:42.656Z,14.89
2023-05-15T19:50:16.682Z,14.90
2023-05-15T19:52:50.733Z,14.92
2023-05-15T19:55:19.077Z,14.87
2023-05-15T19:57:50.061Z,14.87
2023-05-15T20:00:23.521Z,14.86
2023-05-15T20:02:51.988Z,14.85
2023-05-15T20:05:20.593Z,14.89
2023-05-15T20:07:53.276Z,14.81
2023-05-15T20:10:22.152Z,14.81
2023-05-15T20:12:50.608Z,14.80
2023-05-15T20:15:19.640Z,14.77
2023-05-15T20:17:48.718Z,14.73
2023-05-15T20:20:18.341Z,14.62
2023-05-15T20:22:49.375Z,14.58
2023-05-15T20:25:19.303Z,14.55
2023-05-15T20:27:48.070Z,14.46
2023-05-15T20:30:19.545Z,14.41
2023-05-15T20:32:48.043Z,14.43
2023-05-15T20:35:17.848Z,14.42
2023-05-15T20:37:45.832Z,14.31
2023-05-15T20:40:17.010Z,14.37
2023-05-15T20:42:46.455Z,14.32
2023-05-15T20:45:19.242Z,14.32
2023-05-15T20:47:47.329Z,14.33
2023-05-15T20:50:16.422Z,14.40
2023-05-15T20:52:46.120Z,14.41
2023-05-15T20:55:16.819Z,14.43
2023-05-15T20:57:48.654Z,14.41
2023-05-15T21:00:20.338Z,14.42
2023-05-15T21:02:51.537Z,14.39
2023-05-15T21:05:23.217Z,14.36
2023-05-15T21:07:52.682Z,14.37
2023-05-15T21:10:22.101Z,14.37
2023-05-15T21:12:59.284Z,14.33
2023-05-15T21:15:30.350Z,14.22
2023-05-15T21:17:58.672Z,14.21
2023-05-15T21:20:29.265Z,14.13
2023-05-15T21:22:57.741Z,14.02
2023-05-15T21:25:26.245Z,13.97
2023-05-15T21:27:57.631Z,13.89
2023-05-15T21:30:28.784Z,13.79
2023-05-15T21:32:57.302Z,13.70
2023-05-15T21:35:27.306Z,13.62
2023-05-15T21:37:56.724Z,13.60
2023-05-15T21:40:24.933Z,13.57
2023-05-15T21:42:53.437Z,13.56
2023-05-15T21:45:24.097Z,13.50
2023-05-15T21:47:54.087Z,13.40
2023-05-15T21:50:22.259Z,13.37
2023-05-15T21:52:51.627Z,13.31
2023-05-15T21:55:24.817Z,13.20
2023-05-15T21:57:54.081Z,13.15
2023-05-15T22:00:23.286Z,13.12
2023-05-15T22:02:51.212Z,13.16
2023-05-15T22:05:20.605Z,13.02
2023-05-15T22:07:48.500Z,12.99
2023-05-15T22:10:20.182Z,12.93
2023-05-15T22:12:54.017Z,12.90
2023-05-15T22:15:23.362Z,12.89
2023-05-15T22:17:52.893Z,12.84
2023-05-15T22:20:21.565Z,12.79
2023-05-15T22:22:49.586Z,12.72
2023-05-15T22:25:24.981Z,12.72
2023-05-15T22:27:53.220Z,12.69
2023-05-15T22:30:27.954Z,12.63
2023-05-15T22:32:56.353Z,12.63
2023-05-15T22:35:24.791Z,12.62
2023-05-15T22:37:52.933Z,12.64
2023-05-15T22:40:21.111Z,12.60
2023-05-15T22:42:50.192Z,12.60
2023-05-15T22:45:18.673Z,12.59
2023-05-15T22:47:51.168Z,12.53
2023-05-15T22:50:18.940Z,12.48
2023-05-15T22:52:46.662Z,12.35
2023-05-15T22:55:14.682Z,12.30
2023-05-15T22:57:42.442Z,12.30
2023-05-15T23:00:11.286Z,12.20
2023-05-15T23:02:39.611Z,12.13
2023-05-15T23:05:10.458Z,12.05
2023-05-15T23:07:38.397Z,12.02
2023-05-15T23:10:07.313Z,11.97
2023-05-15T23:12:35.331Z,11.91
2023-05-15T23:15:03.065Z,11.89
2023-05-15T23:17:30.937Z,11.90
2023-05-15T23:19:58.998Z,11.93
2023-05-15T23:22:29.805Z,11.93
2023-05-15T23:24:57.688Z,11.93
2023-05-15T23:27:25.502Z,11.85
2023-05-15T23:29:53.234Z,11.85
2023-05-15T23:32:21.057Z,11.82
2023-05-15T23:34:48.843Z,11.80
2023-05-15T23:37:16.803Z,11.72
2023-05-15T23:39:46.077Z,11.67
2023-05-15T23:42:13.776Z,11.63
2023-05-15T23:44:41.586Z,11.63
2023-05-15T23:47:09.550Z,11.60
2023-05-15T23:49:37.267Z,11.61
2023-05-15T23:52:05.623Z,11.60
2023-05-15T23:54:33.424Z,11.58
2023-05-15T23:57:03.612Z,11.58
2023-05-15T23:59:31.405Z,11.61
